LFMD/CEQ METAR and TAF weather

Enter ICAO airport designator
Station Type Date Time Source
LFMD METAR 2019/10/21 23:00 UTC NOAA

LFMD 212300Z AUTO 01004KT 330V050 9999 -RA FEW092 SCT110 OVC150 17/16 Q1020


Station Type Date Time Source
LFMD Decoded METAR 2019/10/21 23:00 UTC NOAA

Cannes, France (LFMD) 43-33N 006-57E 9M
Oct 21, 2019 - 07:00 PM EDT / 2019.10.21 2300 UTC
Wind: from the N (010 degrees) at 5 MPH (4 KT) (direction variable):0
Visibility: greater than 7 mile(s):0
Sky conditions: overcast
Weather: light rain
Temperature: 62 F (17 C)
Dew Point: 60 F (16 C)
Relative Humidity: 93%
Pressure (altimeter): 30.12 in. Hg (1020 hPa)
ob: LFMD 212300Z AUTO 01004KT 330V050 9999 -RA FEW092 SCT110 OVC150 17/16 Q1020
cycle: 23

Station Type Date Time Source
LFMD TAF 2019/10/21 20:50 UTC NOAA

TAF LFMD 212043Z 2120/2215 CNL

Example: see airport list